createdAt,value
2023-02-06T00:01:43.556Z,-4.42
2023-02-06T00:04:10.030Z,-4.30
2023-02-06T00:06:36.549Z,-4.29
2023-02-06T00:09:03.818Z,-4.52
2023-02-06T00:11:30.348Z,-4.49
2023-02-06T00:13:56.835Z,-4.46
2023-02-06T00:16:25.020Z,-4.71
2023-02-06T00:18:52.208Z,-4.49
2023-02-06T00:21:21.627Z,-4.59
2023-02-06T00:23:49.151Z,-4.38
2023-02-06T00:26:15.581Z,-4.40
2023-02-06T00:28:43.108Z,-4.56
2023-02-06T00:31:10.107Z,-4.66
2023-02-06T00:33:36.650Z,-4.42
2023-02-06T00:36:03.241Z,-4.42
2023-02-06T00:38:29.775Z,-4.41
2023-02-06T00:40:57.642Z,-4.62
2023-02-06T00:43:24.109Z,-4.67
2023-02-06T00:45:53.906Z,-5.01
2023-02-06T00:48:21.660Z,-4.77
2023-02-06T00:50:49.064Z,-4.61
2023-02-06T00:53:15.678Z,-4.75
2023-02-06T00:55:42.166Z,-4.57
2023-02-06T00:58:08.673Z,-4.83
2023-02-06T01:00:35.139Z,-4.94
2023-02-06T01:03:01.646Z,-4.71
2023-02-06T01:05:28.837Z,-4.88
2023-02-06T01:07:55.355Z,-4.87
2023-02-06T01:10:21.911Z,-4.74
2023-02-06T01:12:48.353Z,-4.83
2023-02-06T01:15:14.857Z,-4.74
2023-02-06T01:17:41.492Z,-4.94
2023-02-06T01:20:09.220Z,-5.25
2023-02-06T01:22:35.752Z,-5.07
2023-02-06T01:25:02.300Z,-4.99
2023-02-06T01:27:28.854Z,-5.00
2023-02-06T01:29:55.339Z,-4.94
2023-02-06T01:32:21.900Z,-4.99
2023-02-06T01:34:48.349Z,-4.99
2023-02-06T01:37:14.825Z,-5.10
2023-02-06T01:39:41.233Z,-5.07
2023-02-06T01:42:09.899Z,-5.22
2023-02-06T01:44:36.320Z,-5.13
2023-02-06T01:47:02.786Z,-5.23
2023-02-06T01:49:29.193Z,-5.30
2023-02-06T01:52:04.021Z,-5.20
2023-02-06T01:54:30.847Z,-5.60
2023-02-06T01:56:59.213Z,-5.34
2023-02-06T01:59:25.976Z,-5.05
2023-02-06T02:01:52.463Z,-5.19
2023-02-06T02:04:24.254Z,-5.13
2023-02-06T02:06:56.905Z,-5.15
2023-02-06T02:09:23.478Z,-5.05
2023-02-06T02:11:49.958Z,-5.33
2023-02-06T02:14:16.870Z,-5.15
2023-02-06T02:17:02.122Z,-5.13
2023-02-06T02:19:59.610Z,-5.25
2023-02-06T02:22:27.041Z,-5.47
2023-02-06T02:25:05.725Z,-5.64
2023-02-06T02:27:51.087Z,-5.31
2023-02-06T02:30:29.912Z,-5.42
2023-02-06T02:33:12.834Z,-5.19
2023-02-06T02:35:50.247Z,-5.03
2023-02-06T02:38:39.632Z,-5.26
2023-02-06T02:41:17.596Z,-5.24
2023-02-06T02:43:54.891Z,-5.18
2023-02-06T02:46:32.910Z,-5.23
2023-02-06T02:49:03.097Z,-5.52
2023-02-06T02:51:29.742Z,-5.43
2023-02-06T02:53:57.565Z,-5.51
2023-02-06T02:56:24.812Z,-5.44
2023-02-06T02:58:57.161Z,-5.20
2023-02-06T03:01:29.094Z,-5.46
2023-02-06T03:03:58.535Z,-5.73
2023-02-06T03:06:25.308Z,-5.73
2023-02-06T03:09:03.139Z,-5.71
2023-02-06T03:11:30.186Z,-5.64
2023-02-06T03:14:06.197Z,-5.79
2023-02-06T03:16:35.781Z,-5.83
2023-02-06T03:19:21.513Z,-5.61
2023-02-06T03:21:48.726Z,-5.67
2023-02-06T03:24:24.036Z,-5.67
2023-02-06T03:26:52.655Z,-5.70
2023-02-06T03:29:19.660Z,-5.49
2023-02-06T03:31:52.637Z,-5.74
2023-02-06T03:34:25.287Z,-5.77
2023-02-06T03:36:52.431Z,-5.68
2023-02-06T03:39:19.010Z,-5.77
2023-02-06T03:41:45.850Z,-5.75
2023-02-06T03:44:16.239Z,-5.93
2023-02-06T03:46:43.955Z,-5.79
2023-02-06T03:49:12.874Z,-5.94
2023-02-06T03:51:43.323Z,-5.83
2023-02-06T03:54:11.748Z,-5.82
2023-02-06T03:56:43.432Z,-5.94
2023-02-06T03:59:10.129Z,-5.70
2023-02-06T04:01:40.426Z,-6.03
2023-02-06T04:04:06.941Z,-5.78
2023-02-06T04:06:33.542Z,-5.64
2023-02-06T04:08:59.978Z,-5.61
2023-02-06T04:11:26.461Z,-5.87
2023-02-06T04:13:52.881Z,-5.90
2023-02-06T04:16:19.429Z,-5.71
2023-02-06T04:18:45.874Z,-5.79
2023-02-06T04:21:12.312Z,-5.98
2023-02-06T04:23:38.747Z,-5.78
2023-02-06T04:26:05.198Z,-5.66
2023-02-06T04:28:31.675Z,-5.56
2023-02-06T04:30:58.297Z,-5.50
2023-02-06T04:33:24.912Z,-5.46
2023-02-06T04:35:51.441Z,-5.47
2023-02-06T04:38:17.954Z,-5.52
2023-02-06T04:40:44.439Z,-5.84
2023-02-06T04:43:10.897Z,-5.69
2023-02-06T04:45:37.651Z,-5.51
2023-02-06T04:48:04.330Z,-5.62
2023-02-06T04:50:31.903Z,-5.57
2023-02-06T04:52:58.641Z,-5.43
2023-02-06T04:55:25.086Z,-5.55
2023-02-06T04:57:51.671Z,-5.56
2023-02-06T05:00:18.276Z,-5.55
2023-02-06T05:02:44.846Z,-5.37
2023-02-06T05:05:11.467Z,-5.32
2023-02-06T05:07:37.961Z,-5.40
2023-02-06T05:10:04.537Z,-5.34
2023-02-06T05:12:30.956Z,-5.28
2023-02-06T05:14:57.373Z,-5.45
2023-02-06T05:17:25.707Z,-5.39
2023-02-06T05:19:52.259Z,-5.37
2023-02-06T05:22:18.727Z,-5.45
2023-02-06T05:24:45.214Z,-5.55
2023-02-06T05:27:11.652Z,-5.67
2023-02-06T05:29:38.128Z,-5.49
2023-02-06T05:32:04.657Z,-5.32
2023-02-06T05:34:31.125Z,-5.44
2023-02-06T05:36:57.616Z,-5.35
2023-02-06T05:39:24.590Z,-5.38
2023-02-06T05:41:51.053Z,-5.54
2023-02-06T05:44:17.568Z,-5.43
2023-02-06T05:46:44.203Z,-5.49
2023-02-06T05:49:10.768Z,-5.28
2023-02-06T05:51:37.240Z,-5.39
2023-02-06T05:54:03.926Z,-5.39
2023-02-06T05:56:30.361Z,-5.37
2023-02-06T05:58:56.877Z,-5.32
2023-02-06T06:01:23.461Z,-5.34
2023-02-06T06:03:49.990Z,-5.27
2023-02-06T06:06:16.544Z,-5.27
2023-02-06T06:08:42.963Z,-5.11
2023-02-06T06:11:09.464Z,-5.18
2023-02-06T06:13:35.918Z,-5.15
2023-02-06T06:16:02.440Z,-5.11
2023-02-06T06:18:28.966Z,-5.07
2023-02-06T06:20:55.436Z,-5.31
2023-02-06T06:23:21.944Z,-5.22
2023-02-06T06:25:48.549Z,-5.38
2023-02-06T06:28:15.370Z,-5.40
2023-02-06T06:30:42.123Z,-5.25
2023-02-06T06:33:08.635Z,-5.08
2023-02-06T06:35:35.412Z,-5.28
2023-02-06T06:38:02.028Z,-5.09
2023-02-06T06:40:28.526Z,-5.04
2023-02-06T06:42:54.984Z,-4.96
2023-02-06T06:45:21.683Z,-5.27
2023-02-06T06:47:48.205Z,-5.14
2023-02-06T06:50:14.842Z,-5.13
2023-02-06T06:52:41.337Z,-5.14
2023-02-06T06:55:07.944Z,-4.99
2023-02-06T06:57:34.410Z,-4.77
2023-02-06T07:00:00.888Z,-4.74
2023-02-06T07:02:28.536Z,-4.83
2023-02-06T07:04:55.606Z,-4.81
2023-02-06T07:07:22.112Z,-4.66
2023-02-06T07:09:48.613Z,-4.73
2023-02-06T07:12:15.675Z,-4.74
2023-02-06T07:14:42.112Z,-5.00
2023-02-06T07:17:08.548Z,-4.61
2023-02-06T07:19:35.025Z,-4.43
2023-02-06T07:22:01.558Z,-4.52
2023-02-06T07:24:28.060Z,-4.72
2023-02-06T07:26:54.511Z,-4.39
2023-02-06T07:29:20.934Z,-4.40
2023-02-06T07:31:47.426Z,-4.31
2023-02-06T07:34:14.304Z,-4.09
2023-02-06T07:36:40.771Z,-3.59
2023-02-06T07:39:07.220Z,-3.22
2023-02-06T07:41:33.746Z,-2.56
2023-02-06T07:44:00.250Z,-2.18
2023-02-06T07:46:26.896Z,-2.09
2023-02-06T07:48:53.532Z,-1.92
2023-02-06T07:51:20.194Z,-2.23
2023-02-06T07:53:48.150Z,-2.52
2023-02-06T07:56:16.028Z,-2.53
2023-02-06T07:58:42.857Z,-2.81
2023-02-06T08:01:09.434Z,-3.46
2023-02-06T08:03:35.925Z,-3.55
2023-02-06T08:06:07.208Z,-3.59
2023-02-06T08:08:33.640Z,-3.50
2023-02-06T08:11:00.060Z,-3.48
2023-02-06T08:13:26.529Z,-3.17
2023-02-06T08:15:52.968Z,-3.34
2023-02-06T08:18:19.380Z,-3.31
2023-02-06T08:20:45.869Z,-3.32
2023-02-06T08:23:12.284Z,-2.99
2023-02-06T08:25:38.984Z,-2.55
2023-02-06T08:28:05.770Z,-2.54
2023-02-06T08:30:34.398Z,-2.43
2023-02-06T08:33:00.875Z,-2.60
2023-02-06T08:35:27.305Z,-2.47
2023-02-06T08:37:53.867Z,-1.62
2023-02-06T08:40:21.187Z,-1.93
2023-02-06T08:42:49.499Z,-1.56
2023-02-06T08:45:15.991Z,-1.74
2023-02-06T08:47:42.641Z,-1.62
2023-02-06T08:50:09.167Z,-1.67
2023-02-06T08:52:35.635Z,-1.22
2023-02-06T08:55:02.062Z,-1.18
2023-02-06T08:57:28.500Z,-0.72
2023-02-06T08:59:55.102Z,-0.97
2023-02-06T09:02:21.599Z,-1.01
2023-02-06T09:04:48.127Z,-0.71
2023-02-06T09:07:17.175Z,-0.54
2023-02-06T09:09:43.720Z,-0.14
2023-02-06T09:12:11.873Z,-1.08
2023-02-06T09:14:38.416Z,-0.24
2023-02-06T09:17:04.837Z,-0.43
2023-02-06T09:19:31.269Z,-0.11
2023-02-06T09:21:57.745Z,-0.60
2023-02-06T09:24:24.274Z,-0.42
2023-02-06T09:26:59.434Z,0.32
2023-02-06T09:29:28.735Z,0.19
2023-02-06T09:31:57.179Z,-0.07
2023-02-06T09:34:26.001Z,-0.32
2023-02-06T09:36:54.679Z,-0.29
2023-02-06T09:39:21.272Z,-0.05
2023-02-06T09:41:50.680Z,0.49
2023-02-06T09:44:20.804Z,0.75
2023-02-06T09:46:58.024Z,0.49
2023-02-06T09:49:43.451Z,1.29
2023-02-06T09:52:22.255Z,1.63
2023-02-06T09:55:07.027Z,1.37
2023-02-06T09:57:36.456Z,1.27
2023-02-06T10:00:09.873Z,1.33
2023-02-06T10:02:41.796Z,0.65
2023-02-06T10:05:16.543Z,1.87
2023-02-06T10:07:58.602Z,0.56
2023-02-06T10:10:33.731Z,0.62
2023-02-06T10:13:06.332Z,0.24
2023-02-06T10:15:35.724Z,0.59
2023-02-06T10:18:11.233Z,0.46
2023-02-06T10:20:49.832Z,0.78
2023-02-06T10:23:22.183Z,0.83
2023-02-06T10:25:56.105Z,1.28
2023-02-06T10:28:29.965Z,1.74
2023-02-06T10:31:08.623Z,1.29
2023-02-06T10:33:35.171Z,1.31
2023-02-06T10:36:06.894Z,2.18
2023-02-06T10:38:42.617Z,1.81
2023-02-06T10:41:13.728Z,2.14
2023-02-06T10:43:49.437Z,2.63
2023-02-06T10:46:31.231Z,1.97
2023-02-06T10:49:01.388Z,2.02
2023-02-06T10:51:33.544Z,2.49
2023-02-06T10:54:02.050Z,2.25
2023-02-06T10:56:35.718Z,2.21
2023-02-06T10:59:04.986Z,2.00
2023-02-06T11:01:34.421Z,1.04
2023-02-06T11:04:05.917Z,0.76
2023-02-06T11:06:32.648Z,0.20
2023-02-06T11:08:59.141Z,0.42
2023-02-06T11:11:29.839Z,0.47
2023-02-06T11:14:15.569Z,0.35
2023-02-06T11:16:42.458Z,0.80
2023-02-06T11:19:14.727Z,0.56
2023-02-06T11:21:41.248Z,0.49
2023-02-06T11:24:11.639Z,1.07
2023-02-06T11:26:42.394Z,0.40
2023-02-06T11:29:13.418Z,0.97
2023-02-06T11:31:46.954Z,1.61
2023-02-06T11:34:23.464Z,1.05
2023-02-06T11:36:54.100Z,1.72
2023-02-06T11:39:31.540Z,1.19
2023-02-06T11:42:02.924Z,1.68
2023-02-06T11:44:35.110Z,1.11
2023-02-06T11:47:20.359Z,1.24
2023-02-06T11:49:47.155Z,1.15
2023-02-06T11:52:27.576Z,1.42
2023-02-06T11:54:54.667Z,2.51
2023-02-06T11:57:22.914Z,2.10
2023-02-06T11:59:56.783Z,1.90
2023-02-06T12:02:33.869Z,1.95
2023-02-06T12:05:09.620Z,1.97
2023-02-06T12:07:44.551Z,2.42
2023-02-06T12:10:13.541Z,2.55
2023-02-06T12:12:42.273Z,1.49
2023-02-06T12:15:45.907Z,1.72
2023-02-06T12:18:15.339Z,1.24
2023-02-06T12:20:47.421Z,0.72
2023-02-06T12:23:24.327Z,1.02
2023-02-06T12:25:53.544Z,1.66
2023-02-06T12:28:33.427Z,1.49
2023-02-06T12:31:12.711Z,0.44
2023-02-06T12:34:01.551Z,0.93
2023-02-06T12:36:35.076Z,0.85
2023-02-06T12:39:07.375Z,0.49
2023-02-06T12:41:37.525Z,1.50
2023-02-06T12:44:12.207Z,1.33
2023-02-06T12:46:40.490Z,1.17
2023-02-06T12:49:17.903Z,1.33
2023-02-06T12:52:04.704Z,1.24
2023-02-06T12:54:37.587Z,1.07
2023-02-06T12:57:07.031Z,1.15
2023-02-06T12:59:58.288Z,0.96
2023-02-06T13:02:25.943Z,1.31
2023-02-06T13:04:53.043Z,0.86
2023-02-06T13:07:21.654Z,0.82
2023-02-06T13:10:02.104Z,0.92
2023-02-06T13:12:29.870Z,0.52
2023-02-06T13:14:57.718Z,0.58
2023-02-06T13:17:25.848Z,0.37
2023-02-06T13:20:04.145Z,0.31
2023-02-06T13:22:49.612Z,0.25
2023-02-06T13:25:25.593Z,0.35
2023-02-06T13:27:52.954Z,0.44
2023-02-06T13:30:28.622Z,0.33
2023-02-06T13:33:13.587Z,0.31
2023-02-06T13:35:54.673Z,0.21
2023-02-06T13:38:24.116Z,0.47
2023-02-06T13:41:09.213Z,0.67
2023-02-06T13:43:36.313Z,0.17
2023-02-06T13:46:05.916Z,0.09
2023-02-06T13:48:35.388Z,0.27
2023-02-06T13:51:20.738Z,0.21
2023-02-06T13:53:47.147Z,0.66
2023-02-06T13:56:25.715Z,0.02
2023-02-06T13:58:56.293Z,-0.21
2023-02-06T14:01:29.754Z,-0.54
2023-02-06T14:03:58.082Z,-0.18
2023-02-06T14:06:43.340Z,0.29
2023-02-06T14:09:09.813Z,-0.35
2023-02-06T14:12:13.788Z,-0.39
2023-02-06T14:14:58.769Z,-0.58
2023-02-06T14:17:31.188Z,-0.41
2023-02-06T14:20:07.662Z,-0.32
2023-02-06T14:22:42.734Z,-0.56
2023-02-06T14:25:12.364Z,-0.40
2023-02-06T14:27:44.782Z,-0.58
2023-02-06T14:30:29.900Z,-0.55
2023-02-06T14:33:07.175Z,-0.50
2023-02-06T14:35:39.937Z,-0.39
2023-02-06T14:38:18.528Z,-0.56
2023-02-06T14:40:49.266Z,0.04
2023-02-06T14:43:19.033Z,0.09
2023-02-06T14:46:04.612Z,0.01
2023-02-06T14:48:33.232Z,-0.15
2023-02-06T14:51:00.598Z,-0.29
2023-02-06T14:53:29.047Z,-0.20
2023-02-06T14:56:19.538Z,-0.04
2023-02-06T14:58:48.101Z,0.00
2023-02-06T15:01:17.670Z,-0.31
2023-02-06T15:03:48.548Z,-0.20
2023-02-06T15:06:32.386Z,0.05
2023-02-06T15:08:59.346Z,0.20
2023-02-06T15:11:32.302Z,-0.42
2023-02-06T15:14:03.445Z,-0.43
2023-02-06T15:16:30.918Z,-0.44
2023-02-06T15:19:11.130Z,-0.18
2023-02-06T15:21:38.321Z,0.15
2023-02-06T15:24:12.034Z,-0.05
2023-02-06T15:26:47.638Z,-0.35
2023-02-06T15:29:18.375Z,-0.36
2023-02-06T15:31:49.298Z,-0.21
2023-02-06T15:34:17.812Z,-0.19
2023-02-06T15:36:44.349Z,-0.24
2023-02-06T15:39:12.425Z,-0.34
2023-02-06T15:41:40.702Z,-0.38
2023-02-06T15:44:12.873Z,-0.55
2023-02-06T15:46:39.789Z,-0.37
2023-02-06T15:49:10.959Z,-0.47
2023-02-06T15:51:48.839Z,-0.39
2023-02-06T15:54:19.740Z,-0.31
2023-02-06T15:56:50.706Z,-0.59
2023-02-06T15:59:22.985Z,-0.59
2023-02-06T16:01:50.136Z,-0.51
2023-02-06T16:04:28.398Z,-0.49
2023-02-06T16:07:13.308Z,-0.49
2023-02-06T16:09:42.240Z,-0.67
2023-02-06T16:12:09.090Z,-0.67
2023-02-06T16:14:37.988Z,-0.56
2023-02-06T16:17:06.584Z,-0.67
2023-02-06T16:19:38.262Z,-0.59
2023-02-06T16:22:06.168Z,-0.48
2023-02-06T16:24:32.656Z,-0.57
2023-02-06T16:27:08.368Z,-0.83
2023-02-06T16:29:34.857Z,-0.83
2023-02-06T16:32:16.495Z,-0.85
2023-02-06T16:34:44.203Z,-0.88
2023-02-06T16:37:15.893Z,-0.78
2023-02-06T16:39:44.041Z,-0.99
2023-02-06T16:42:18.175Z,-0.98
2023-02-06T16:44:48.159Z,-1.08
2023-02-06T16:47:16.868Z,-1.19
2023-02-06T16:49:43.419Z,-1.24
2023-02-06T16:52:16.433Z,-1.20
2023-02-06T16:54:43.802Z,-1.18
2023-02-06T16:57:21.690Z,-1.27
2023-02-06T16:59:48.399Z,-1.53
2023-02-06T17:02:14.929Z,-1.77
2023-02-06T17:04:41.425Z,-1.92
2023-02-06T17:07:15.757Z,-1.82
2023-02-06T17:09:42.742Z,-1.85
2023-02-06T17:12:11.696Z,-1.69
2023-02-06T17:14:38.152Z,-1.74
2023-02-06T17:17:04.605Z,-1.64
2023-02-06T17:19:31.295Z,-1.81
2023-02-06T17:21:57.750Z,-1.93
2023-02-06T17:24:24.188Z,-1.95
2023-02-06T17:26:50.709Z,-1.87
2023-02-06T17:29:17.136Z,-1.91
2023-02-06T17:31:43.673Z,-2.00
2023-02-06T17:34:10.235Z,-2.01
2023-02-06T17:36:39.578Z,-2.01
2023-02-06T17:39:06.140Z,-2.11
2023-02-06T17:41:32.687Z,-2.09
2023-02-06T17:43:59.227Z,-2.16
2023-02-06T17:46:25.745Z,-2.13
2023-02-06T17:48:52.289Z,-2.21
2023-02-06T17:51:18.736Z,-2.27
2023-02-06T17:53:45.774Z,-2.59
2023-02-06T17:56:12.971Z,-2.67
2023-02-06T17:58:40.032Z,-2.65
2023-02-06T18:01:13.633Z,-2.62
2023-02-06T18:03:40.614Z,-2.63
2023-02-06T18:06:07.294Z,-2.47
2023-02-06T18:08:33.735Z,-2.49
2023-02-06T18:11:00.396Z,-2.61
2023-02-06T18:13:28.253Z,-2.86
2023-02-06T18:15:55.736Z,-2.87
2023-02-06T18:18:23.294Z,-2.82
2023-02-06T18:20:49.895Z,-2.72
2023-02-06T18:23:16.684Z,-2.68
2023-02-06T18:25:44.227Z,-2.84
2023-02-06T18:28:13.808Z,-2.78
2023-02-06T18:30:40.907Z,-3.12
2023-02-06T18:33:08.101Z,-3.29
2023-02-06T18:35:38.940Z,-3.10
2023-02-06T18:38:09.511Z,-2.99
2023-02-06T18:40:40.688Z,-2.94
2023-02-06T18:43:07.614Z,-2.84
2023-02-06T18:45:35.951Z,-2.88
2023-02-06T18:48:03.570Z,-2.99
2023-02-06T18:50:30.843Z,-3.06
2023-02-06T18:52:57.783Z,-3.18
2023-02-06T18:55:24.876Z,-3.44
2023-02-06T18:57:51.840Z,-3.57
2023-02-06T19:00:19.458Z,-3.48
2023-02-06T19:02:46.389Z,-3.46
2023-02-06T19:05:12.982Z,-3.67
2023-02-06T19:07:39.738Z,-3.61
2023-02-06T19:10:09.684Z,-3.76
2023-02-06T19:12:37.563Z,-3.90
2023-02-06T19:15:04.836Z,-3.87
2023-02-06T19:17:31.445Z,-3.66
2023-02-06T19:19:58.007Z,-3.63
2023-02-06T19:22:24.528Z,-3.65
2023-02-06T19:24:53.306Z,-3.60
2023-02-06T19:27:21.098Z,-3.67
2023-02-06T19:29:48.114Z,-3.70
2023-02-06T19:32:14.828Z,-3.72
2023-02-06T19:34:41.964Z,-3.71
2023-02-06T19:37:09.258Z,-3.71
2023-02-06T19:39:37.142Z,-3.72
2023-02-06T19:42:06.497Z,-3.75
2023-02-06T19:44:33.506Z,-3.75
2023-02-06T19:47:00.180Z,-3.78
2023-02-06T19:49:27.057Z,-3.73
2023-02-06T19:51:53.842Z,-3.73
2023-02-06T19:54:20.333Z,-3.80
2023-02-06T19:56:47.877Z,-3.92
2023-02-06T19:59:18.184Z,-3.90
2023-02-06T20:01:48.972Z,-3.84
2023-02-06T20:04:15.527Z,-3.91
2023-02-06T20:06:43.884Z,-3.84
2023-02-06T20:09:11.575Z,-3.87
2023-02-06T20:11:38.268Z,-4.01
2023-02-06T20:14:05.078Z,-3.91
2023-02-06T20:16:33.033Z,-4.00
2023-02-06T20:19:05.448Z,-3.98
2023-02-06T20:21:33.631Z,-4.28
2023-02-06T20:24:01.204Z,-4.40
2023-02-06T20:26:31.562Z,-4.47
2023-02-06T20:28:58.193Z,-4.45
2023-02-06T20:31:24.800Z,-4.22
2023-02-06T20:33:51.335Z,-4.39
2023-02-06T20:36:19.136Z,-4.35
2023-02-06T20:38:49.485Z,-4.37
2023-02-06T20:41:16.286Z,-4.21
2023-02-06T20:43:42.816Z,-4.18
2023-02-06T20:46:09.429Z,-4.29
2023-02-06T20:48:35.953Z,-4.23
2023-02-06T20:51:03.159Z,-4.44
2023-02-06T20:53:29.781Z,-4.46
2023-02-06T20:55:56.540Z,-4.70
2023-02-06T20:58:23.044Z,-4.53
2023-02-06T21:00:50.225Z,-4.44
2023-02-06T21:03:16.825Z,-4.43
2023-02-06T21:05:43.504Z,-4.60
2023-02-06T21:08:10.373Z,-4.52
2023-02-06T21:10:37.150Z,-4.40
2023-02-06T21:13:03.869Z,-4.36
2023-02-06T21:15:30.320Z,-4.39
2023-02-06T21:17:57.238Z,-4.49
2023-02-06T21:20:23.730Z,-4.14
2023-02-06T21:22:52.753Z,-4.24
2023-02-06T21:25:20.465Z,-4.44
2023-02-06T21:27:47.037Z,-4.79
2023-02-06T21:30:13.687Z,-4.86
2023-02-06T21:32:40.159Z,-4.81
2023-02-06T21:35:07.834Z,-4.66
2023-02-06T21:37:34.298Z,-4.50
2023-02-06T21:40:00.745Z,-4.50
2023-02-06T21:42:27.481Z,-4.49
2023-02-06T21:44:53.923Z,-4.74
2023-02-06T21:47:20.374Z,-4.70
2023-02-06T21:49:46.894Z,-4.50
2023-02-06T21:52:13.440Z,-4.45
2023-02-06T21:54:40.198Z,-4.47
2023-02-06T21:57:06.729Z,-4.63
2023-02-06T21:59:34.137Z,-4.48
2023-02-06T22:02:00.632Z,-4.40
2023-02-06T22:04:27.224Z,-4.50
2023-02-06T22:06:53.692Z,-4.45
2023-02-06T22:09:20.903Z,-4.36
2023-02-06T22:11:47.537Z,-4.37
2023-02-06T22:14:15.834Z,-4.41
2023-02-06T22:16:42.787Z,-4.44
2023-02-06T22:19:10.353Z,-4.50
2023-02-06T22:21:36.958Z,-4.57
2023-02-06T22:24:06.379Z,-4.48
2023-02-06T22:26:36.783Z,-4.23
2023-02-06T22:29:03.839Z,-4.35
2023-02-06T22:31:31.446Z,-4.41
2023-02-06T22:33:58.885Z,-4.57
2023-02-06T22:36:26.585Z,-4.57
2023-02-06T22:38:56.897Z,-4.59
2023-02-06T22:41:23.608Z,-4.79
2023-02-06T22:43:51.073Z,-4.73
2023-02-06T22:46:19.730Z,-4.77
2023-02-06T22:48:46.764Z,-5.15
2023-02-06T22:51:13.510Z,-4.98
2023-02-06T22:53:40.807Z,-5.07
2023-02-06T22:56:29.351Z,-4.97
2023-02-06T22:59:06.741Z,-4.91
2023-02-06T23:01:37.844Z,-4.68
2023-02-06T23:04:05.206Z,-4.86
2023-02-06T23:06:32.844Z,-5.06
2023-02-06T23:09:00.356Z,-4.87
2023-02-06T23:11:28.246Z,-4.70
2023-02-06T23:13:57.647Z,-4.71
2023-02-06T23:16:24.213Z,-4.90
2023-02-06T23:18:50.708Z,-5.12
2023-02-06T23:21:18.029Z,-5.10
2023-02-06T23:23:44.565Z,-4.82
2023-02-06T23:26:12.404Z,-4.66
2023-02-06T23:28:38.896Z,-4.79
2023-02-06T23:31:06.052Z,-4.89
2023-02-06T23:33:33.062Z,-4.92
2023-02-06T23:36:04.217Z,-5.17
2023-02-06T23:38:30.711Z,-4.79
2023-02-06T23:41:03.368Z,-4.92
2023-02-06T23:43:29.832Z,-4.89
2023-02-06T23:45:56.313Z,-4.86
2023-02-06T23:48:22.812Z,-4.74
2023-02-06T23:50:49.287Z,-5.01
2023-02-06T23:53:15.701Z,-4.86
2023-02-06T23:55:42.210Z,-5.01
2023-02-06T23:58:08.695Z,-5.17
